aviador You're here:

YCAR Decoded Metar

CARNARVON in AUSTRALIA
Report Time2017-11-20 21:00:00
UTC Time2017-11-20 21:20:36
Flight Rules vfr VFR
Wind150° at 15 kt
W.Decomp.*RWY 18: 13.0 kt HW 7.5 kt LCW
RWY 22: 5.1 kt HW 14.1 kt LCW
W.Rank150° ranks 7
Current wind is above 150° avg. (10.5)
Visibility9999 m
Phenomena:N/A
Clouds:N/A
Expected CloudBase > 2,400 ft AGL from Temp-Dew spread
CeilingNone
Temp19°C (ISA +4)
Dew Point13°C (68% RH)
AAT14.5°C
QNH1012 hPa
Density Alt735 ft
Elevation26 ft
Report Wrong Elevation
Raw Report
METAR YCAR 202100Z AUTO 15015KT 9999 // NCD 19/13 Q1012=

Extra information for YCAR:More info

Metar Taf Metar & Taf Last 4 Metars F.Rules Stats Wind Profile Meteogram Temp Stats Airport Information Weather charts Add Link Nearby VenuesMetar ALERT Operation Metar Decoded Social comments